Estaciones Metar próximas

 

LELL - Sabadell, Spain
Distancia a la estación: E 18km
Actualizado: 22/06/2021 21:30
Nubes dispersas
Nubes dispersas
 Viento del ESE
Viento: ESE 13 km/h
Temperatura: 29°C
Heat Index: 34°C
Rocío: 25°C
Humedad: 79%
Barómetro: 1015 hPa
Nubes: Nubes dispersas
Visibilidad: 10 km
Detalle Nubes: Nubes dispersas 914 m
2021/06/22 19:30 LELL 221930Z 12007KT 070V150 9999 FEW030 29/25 Q1015
LEBL - Barcelona Airpor, Spain
Distancia a la estación: SSE 33km
Actualizado: 22/06/2021 21:30
Parcialmente nuboso
Parcialmente nuboso
 Viento del SSE
Viento: SSE 6 km/h
Temperatura: 22°C
Rocío: 19°C
Humedad: 83%
Barómetro: 1014 hPa
Nubes: Parcialmente nuboso
Visibilidad: 10 km
Detalle Nubes: Parcialmente nuboso 488 m
2021/06/22 19:30 LEBL 221930Z 15003KT 110V190 9999 SCT016 22/19 Q1014 NOSIG
LERS - Reus (civ/Mil), Spain
Distancia a la estación: SO 75km
Actualizado: 22/06/2021 21:30
Nubes dispersas
Nubes dispersas
 Viento del S
Viento: S 6 km/h
Temperatura: 22°C
Rocío: 17°C
Humedad: 73%
Barómetro: 1014 hPa
Nubes: Nubes dispersas
Visibilidad: 10 km
Detalle Nubes: Nubes dispersas 914 m
2021/06/22 19:30 LERS 221930Z 19003KT 150V220 9999 FEW030 22/17 Q1014
 
LEGE - Gerona/Costa Bra, Spain
Distancia a la estación: ENE 83km
Actualizado: 22/06/2021 21:30
Nubes dispersas
Nubes dispersas
 Viento del SSE
Viento: SSE 6 km/h
Temperatura: 21°C
Rocío: 15°C
Humedad: 69%
Barómetro: 1015 hPa
Nubes: Nubes dispersas
Visibilidad: 10 km
Detalle Nubes: Nubes dispersas 853 m
2021/06/22 19:30 LEGE 221930Z 16003KT 100V220 9999 FEW028 21/15 Q1015
LFMP - Perpignan/Rivesa, France
Distancia a la estación: NNE 155km
Actualizado: 22/06/2021 21:30
Muy nuboso
Muy nuboso
 Viento del ONO
Viento: ONO 15 km/h
Temperatura: 24°C
Rocío: 11°C
Humedad: 44%
Barómetro: 1015 hPa
Nubes: Muy nuboso
Visibilidad: 10 km
Detalle Nubes: Muy nuboso 2134 m
Muy nuboso 2682 m
Muy nuboso 3962 m
2021/06/22 19:30 LFMP 221930Z AUTO 29008KT 9999 BKN070 BKN088 BKN130 24/11 Q1015 NOSIG
LFMK - Carcassonne/Salv, France
Distancia a la estación: N 191km
Actualizado: 22/06/2021 21:30
Cubierto
Cubierto
 Viento del O
Viento: O 24 km/h
Temperatura: 18°C
Rocío: 14°C
Humedad: 78%
Barómetro: 1017 hPa
Nubes: Cubierto
Visibilidad: 10 km
Detalle Nubes: Parcialmente nuboso 1585 m
Cubierto 2195 m
2021/06/22 19:30 LFMK 221930Z AUTO 28013KT 9999 SCT052 OVC072 18/14 Q1017
 
LEHC - Huesca-Pirineos, Spain
Distancia a la estación: ONO 193km
Actualizado: 22/06/2021 21:30
Despejado
Despejado
 Viento del ONO
Viento: ONO 20 km/h
Temperatura: 19°C
Rocío: 9°C
Humedad: 52%
Barómetro: 1016 hPa
Resumen: Despejado
Visibilidad: greater than 10 km
2021/06/22 19:30 LEHC 221930Z AUTO 29011KT CAVOK 19/09 Q1016
LFMU - Beziers/Vias, France
Distancia a la estación: NNE 232km
Actualizado: 22/06/2021 21:30
Despejado
Despejado
 Viento del O
Viento: O 11 km/h
Temperatura: 24°C
Rocío: 12°C
Humedad: 47%
Barómetro: 1014 hPa
Resumen: Despejado
Visibilidad: greater than 10 km
2021/06/22 19:30 LFMU 221930Z AUTO 27006KT CAVOK 24/12 Q1014 NOSIG
LEPA - Palma De Mallorc, Spain
Distancia a la estación: SSE 233km
Actualizado: 22/06/2021 21:30
Nubes dispersas
Nubes dispersas
 Viento del ENE
Viento: ENE 11 km/h
Temperatura: 26°C
Rocío: 19°C
Humedad: 65%
Barómetro: 1013 hPa
Nubes: Nubes dispersas
Visibilidad: 10 km
Detalle Nubes: Nubes dispersas 1219 m
2021/06/22 19:30 LEPA 221930Z 07006KT 9999 FEW040 26/19 Q1013 NOSIG
 
LFBO - Toulouse/Blagnac, France
Distancia a la estación: N 236km
Actualizado: 22/06/2021 21:30
Tormenta
Tormenta
 Viento del SO
Viento: SO 7 km/h
Temperatura: 18°C
Rocío: 16°C
Humedad: 88%
Barómetro: 1017 hPa
Nubes: Tormenta
Visibilidad: 10 km
Detalle Nubes: Nubes dispersas 975 m
Parcialmente nuboso 1463 m
Cubierto 3048 m
2021/06/22 19:30 LFBO 221930Z AUTO 23004KT 9999 FEW032/// SCT048/// OVC100/// ///CB 18/16 Q1017 TEMPO 4000 SHRA
LFBT - Tarbes/Ossun, France
Distancia a la estación: NO 239km
Actualizado: 22/06/2021 21:30
Muy nuboso
Muy nuboso
 Viento del O
Viento: O 17 km/h
Temperatura: 16°C
Rocío: 13°C
Humedad: 83%
Barómetro: 1019 hPa
Nubes: Muy nuboso
Visibilidad: 10 km
Detalle Nubes: Parcialmente nuboso 457 m
Muy nuboso 610 m
Muy nuboso 1829 m
2021/06/22 19:30 LFBT 221930Z AUTO 26009KT 220V280 9999 SCT015 BKN020 BKN060 16/13 Q1019 TEMPO 4000 SHRA BKN030TCU
LEZG - Zaragoza (mil/Ci, Spain
Distancia a la estación: O 242km
Actualizado: 22/06/2021 21:30
Parcialmente nuboso
Parcialmente nuboso
 Viento del ONO
Viento: ONO 33 km/h
Temperatura: 20°C
Rocío: 12°C
Humedad: 60%
Barómetro: 1016 hPa
Nubes: Parcialmente nuboso
Visibilidad: 10 km
Detalle Nubes: Nubes dispersas 1829 m
Parcialmente nuboso 2438 m
2021/06/22 19:30 LEZG 221930Z 30018KT 9999 FEW060TCU SCT080 20/12 Q1016